createdAt,value
2022-11-15T00:30:33.279Z,0
2022-11-15T00:31:14.328Z,0
2022-11-15T00:31:54.829Z,0
2022-11-15T00:32:35.317Z,0
2022-11-15T00:33:15.784Z,0
2022-11-15T00:33:56.276Z,0
2022-11-15T00:34:36.724Z,0
2022-11-15T00:35:17.173Z,0
2022-11-15T00:35:57.641Z,0
2022-11-15T00:43:22.802Z,0
2022-11-15T00:44:43.717Z,0
2022-11-15T00:45:24.203Z,0
2022-11-15T00:46:04.680Z,0
2022-11-15T00:46:45.135Z,0
2022-11-15T00:47:25.637Z,0
2022-11-15T00:48:06.154Z,0
2022-11-15T00:48:46.655Z,0
2022-11-15T00:49:27.133Z,0
2022-11-15T00:50:07.617Z,0
2022-11-15T00:50:48.054Z,0
2022-11-15T00:57:32.717Z,0
2022-11-15T00:58:13.217Z,0
2022-11-15T00:58:53.683Z,0
2022-11-15T00:59:34.174Z,0
2022-11-15T01:00:14.644Z,0
2022-11-15T01:00:55.189Z,0
2022-11-15T01:01:35.626Z,0
2022-11-15T01:02:16.115Z,0
2022-11-15T01:02:56.598Z,0
2022-11-15T01:03:37.065Z,0
2022-11-15T01:04:57.959Z,0
2022-11-15T01:12:23.167Z,0
2022-11-15T01:13:03.622Z,0
2022-11-15T01:13:44.031Z,0
2022-11-15T01:14:25.617Z,0
2022-11-15T01:15:04.971Z,0
2022-11-15T01:15:45.419Z,0
2022-11-15T01:16:25.894Z,0
2022-11-15T01:17:06.428Z,0
2022-11-15T01:17:46.783Z,0
2022-11-15T01:18:27.277Z,0
2022-11-15T01:19:07.730Z,0
2022-11-15T01:21:15.800Z,0
2022-11-15T01:21:56.301Z,0
2022-11-15T01:22:36.727Z,0
2022-11-15T01:23:17.242Z,0
2022-11-15T01:24:04.482Z,0
2022-11-15T01:24:45.047Z,0
2022-11-15T01:25:25.416Z,0
2022-11-15T01:26:05.951Z,0
2022-11-15T01:30:53.089Z,0
2022-11-15T01:31:33.517Z,0
2022-11-15T01:32:14.023Z,0
2022-11-15T01:32:54.486Z,0
2022-11-15T01:33:34.933Z,0
2022-11-15T01:34:15.394Z,0
2022-11-15T01:34:55.853Z,0
2022-11-15T01:35:36.299Z,0
2022-11-15T01:39:01.814Z,0
2022-11-15T01:41:19.413Z,0
2022-11-15T01:41:59.825Z,0
2022-11-15T01:42:40.358Z,0
2022-11-15T01:43:20.771Z,0
2022-11-15T01:44:01.281Z,0
2022-11-15T01:44:41.745Z,0
2022-11-15T01:45:22.186Z,0
2022-11-15T01:46:02.696Z,0
2022-11-15T01:46:43.127Z,0
2022-11-15T01:47:23.635Z,0
2022-11-15T01:48:04.044Z,0
2022-11-15T01:55:29.202Z,0
2022-11-15T01:56:10.372Z,0
2022-11-15T01:56:50.867Z,0
2022-11-15T01:57:31.318Z,0
2022-11-15T01:58:11.775Z,0
2022-11-15T01:58:52.235Z,0
2022-11-15T01:59:32.806Z,0
2022-11-15T02:00:13.207Z,0
2022-11-15T02:00:53.696Z,0
2022-11-15T02:01:34.131Z,0
2022-11-15T02:08:59.327Z,0
2022-11-15T02:09:39.809Z,0
2022-11-15T02:10:20.291Z,0
2022-11-15T02:11:00.733Z,0
2022-11-15T02:11:41.187Z,0
2022-11-15T02:12:21.668Z,0
2022-11-15T02:13:02.131Z,0
2022-11-15T02:13:42.607Z,0
2022-11-15T02:14:23.098Z,0
2022-11-15T02:15:03.513Z,0
2022-11-15T02:17:21.315Z,0
2022-11-15T02:18:01.828Z,0
2022-11-15T02:18:42.235Z,0
2022-11-15T02:19:22.710Z,0
2022-11-15T02:20:03.180Z,0
2022-11-15T02:20:43.668Z,0
2022-11-15T02:21:24.159Z,0
2022-11-15T02:22:04.638Z,0
2022-11-15T02:22:45.134Z,0
2022-11-15T02:23:25.627Z,0
2022-11-15T02:24:06.074Z,0
2022-11-15T02:31:31.268Z,0
2022-11-15T02:32:11.733Z,0
2022-11-15T02:32:52.224Z,0
2022-11-15T02:33:33.099Z,0
2022-11-15T02:34:13.158Z,0
2022-11-15T02:34:53.706Z,0
2022-11-15T02:35:34.158Z,0
2022-11-15T02:36:14.625Z,0
2022-11-15T02:36:55.143Z,0
2022-11-15T02:37:35.589Z,0
2022-11-15T02:38:16.058Z,0
2022-11-15T02:45:01.036Z,0
2022-11-15T02:45:41.489Z,0
2022-11-15T02:46:21.942Z,0
2022-11-15T02:47:02.393Z,0
2022-11-15T02:47:42.863Z,0
2022-11-15T02:48:23.343Z,0
2022-11-15T02:49:03.848Z,0
2022-11-15T02:49:44.326Z,0
2022-11-15T02:50:24.784Z,0
2022-11-15T02:51:05.290Z,0
2022-11-15T02:52:26.173Z,0
2022-11-15T02:59:51.424Z,0
2022-11-15T03:00:31.894Z,0
2022-11-15T03:01:12.392Z,0
2022-11-15T03:01:52.840Z,0
2022-11-15T03:02:33.304Z,0
2022-11-15T03:03:13.760Z,0
2022-11-15T03:03:54.254Z,0
2022-11-15T03:04:34.741Z,0
2022-11-15T03:05:15.170Z,0
2022-11-15T03:05:55.656Z,0
2022-11-15T03:06:36.119Z,0
2022-11-15T03:12:57.042Z,0
2022-11-15T03:13:37.540Z,0
2022-11-15T03:14:18.029Z,0
2022-11-15T03:14:58.494Z,0
2022-11-15T03:19:42.478Z,0
2022-11-15T03:20:22.929Z,0
2022-11-15T03:21:03.379Z,0
2022-11-15T03:21:43.830Z,0
2022-11-15T03:22:24.315Z,0
2022-11-15T03:23:04.831Z,0
2022-11-15T03:23:45.309Z,0
2022-11-15T03:24:26.231Z,0
2022-11-15T03:25:06.283Z,0
2022-11-15T03:25:46.752Z,0
2022-11-15T03:33:12.107Z,0
2022-11-15T03:33:52.607Z,0
2022-11-15T03:34:33.077Z,0
2022-11-15T03:35:13.565Z,0
2022-11-15T03:35:54.018Z,0
2022-11-15T03:36:34.508Z,0
2022-11-15T03:37:14.997Z,0
2022-11-15T03:37:55.505Z,0
2022-11-15T03:38:36.011Z,0
2022-11-15T03:39:20.529Z,0
2022-11-15T03:39:56.931Z,0
2022-11-15T03:47:22.302Z,0
2022-11-15T03:48:02.761Z,0
2022-11-15T03:48:43.245Z,0
2022-11-15T03:49:23.757Z,0
2022-11-15T03:50:04.221Z,0
2022-11-15T03:50:44.691Z,0
2022-11-15T03:51:25.169Z,0
2022-11-15T03:52:05.643Z,0
2022-11-15T03:52:46.127Z,0
2022-11-15T03:53:26.705Z,0
2022-11-15T04:00:52.071Z,0
2022-11-15T04:01:32.709Z,0
2022-11-15T04:02:13.077Z,0
2022-11-15T04:02:53.509Z,0
2022-11-15T04:03:34.303Z,0
2022-11-15T04:04:14.470Z,0
2022-11-15T04:04:54.956Z,0
2022-11-15T04:05:35.420Z,0
2022-11-15T04:06:15.937Z,0
2022-11-15T04:06:56.464Z,0
2022-11-15T04:07:36.914Z,0
2022-11-15T04:13:41.865Z,0
2022-11-15T04:16:55.521Z,0
2022-11-15T04:17:36.062Z,0
2022-11-15T04:18:16.489Z,0
2022-11-15T04:18:56.990Z,0
2022-11-15T04:19:37.492Z,0
2022-11-15T04:20:18.017Z,0
2022-11-15T04:20:58.459Z,0
2022-11-15T04:21:38.940Z,0
2022-11-15T04:22:19.385Z,0
2022-11-15T04:22:59.850Z,0
2022-11-15T04:23:40.333Z,0
2022-11-15T04:31:05.570Z,0
2022-11-15T04:31:46.070Z,0
2022-11-15T04:32:26.563Z,0
2022-11-15T04:33:07.087Z,0
2022-11-15T04:33:47.601Z,0
2022-11-15T04:34:28.038Z,0
2022-11-15T04:35:08.499Z,0
2022-11-15T04:35:48.989Z,0
2022-11-15T04:36:29.524Z,0
2022-11-15T04:37:09.963Z,0
2022-11-15T04:37:50.479Z,0
2022-11-15T04:43:55.233Z,0
2022-11-15T04:44:35.718Z,0
2022-11-15T04:45:16.209Z,0
2022-11-15T04:45:56.690Z,0
2022-11-15T04:46:37.189Z,0
2022-11-15T04:47:58.138Z,0
2022-11-15T04:48:38.706Z,0
2022-11-15T04:49:19.158Z,0
2022-11-15T04:49:59.636Z,0
2022-11-15T04:50:40.128Z,0
2022-11-15T04:58:05.583Z,0
2022-11-15T04:58:46.101Z,0
2022-11-15T04:59:26.600Z,0
2022-11-15T05:00:07.066Z,0
2022-11-15T05:00:47.596Z,0
2022-11-15T05:01:28.189Z,0
2022-11-15T05:02:08.674Z,0
2022-11-15T05:02:49.192Z,0
2022-11-15T05:03:29.917Z,0
2022-11-15T05:04:10.203Z,0
2022-11-15T05:11:35.537Z,0
2022-11-15T05:12:16.031Z,0
2022-11-15T05:12:56.492Z,0
2022-11-15T05:13:36.970Z,0
2022-11-15T05:14:17.461Z,0
2022-11-15T05:17:46.353Z,0
2022-11-15T05:18:26.776Z,0
2022-11-15T05:19:07.303Z,0
2022-11-15T05:19:47.804Z,0
2022-11-15T05:20:28.290Z,0
2022-11-15T05:21:08.787Z,0
2022-11-15T05:21:49.267Z,0
2022-11-15T05:22:29.773Z,0
2022-11-15T05:23:10.267Z,0
2022-11-15T05:23:50.783Z,0
2022-11-15T05:24:31.303Z,0
2022-11-15T05:31:16.136Z,0
2022-11-15T05:31:56.664Z,0
2022-11-15T05:32:37.250Z,0
2022-11-15T05:33:17.698Z,0
2022-11-15T05:33:58.145Z,0
2022-11-15T05:34:38.648Z,0
2022-11-15T05:35:19.737Z,0
2022-11-15T05:36:00.193Z,0
2022-11-15T05:36:40.627Z,0
2022-11-15T05:37:21.168Z,0
2022-11-15T05:44:06.143Z,0
2022-11-15T05:44:46.584Z,0
2022-11-15T05:45:27.342Z,0
2022-11-15T05:46:07.618Z,0
2022-11-15T05:46:48.095Z,0
2022-11-15T05:47:28.704Z,0
2022-11-15T05:48:09.170Z,0
2022-11-15T05:48:49.605Z,0
2022-11-15T05:54:16.066Z,0
2022-11-15T06:31:27.915Z,12
2022-11-15T06:32:08.379Z,16
2022-11-15T06:32:48.887Z,16
2022-11-15T06:33:29.680Z,16
2022-11-15T06:34:09.792Z,16
2022-11-15T06:34:50.334Z,20
2022-11-15T06:35:30.864Z,20
2022-11-15T06:36:16.165Z,24
2022-11-15T06:36:51.862Z,28
2022-11-15T06:38:12.880Z,32
2022-11-15T06:44:57.644Z,56
2022-11-15T06:45:38.114Z,56
2022-11-15T06:46:18.658Z,60
2022-11-15T06:46:59.177Z,64
2022-11-15T06:47:39.664Z,64
2022-11-15T06:48:20.169Z,72
2022-11-15T06:49:03.972Z,76
2022-11-15T06:49:41.132Z,80
2022-11-15T06:50:21.667Z,84
2022-11-15T06:51:02.196Z,84
2022-11-15T06:51:42.842Z,88
2022-11-15T06:56:28.715Z,116
2022-11-15T06:59:29.730Z,136
2022-11-15T07:00:10.277Z,144
2022-11-15T07:00:50.734Z,152
2022-11-15T07:01:31.246Z,152
2022-11-15T07:02:11.750Z,160
2022-11-15T07:02:52.207Z,164
2022-11-15T07:06:07.594Z,188
2022-11-15T07:06:47.739Z,188
2022-11-15T07:07:28.312Z,196
2022-11-15T07:08:15.578Z,208
2022-11-15T07:08:56.997Z,212
2022-11-15T07:12:06.340Z,240
2022-11-15T07:12:41.922Z,248
2022-11-15T07:13:22.300Z,252
2022-11-15T07:14:02.896Z,264
2022-11-15T07:14:43.324Z,272
2022-11-15T07:15:23.821Z,280
2022-11-15T07:16:04.477Z,288
2022-11-15T07:16:45.111Z,292
2022-11-15T07:17:25.702Z,296
2022-11-15T07:18:06.170Z,300
2022-11-15T07:24:51.191Z,376
2022-11-15T07:25:31.615Z,384
2022-11-15T07:26:12.184Z,392
2022-11-15T07:26:52.595Z,400
2022-11-15T07:27:33.064Z,408
2022-11-15T07:28:13.537Z,416
2022-11-15T07:28:54.221Z,428
2022-11-15T07:29:34.792Z,436
2022-11-15T07:30:55.924Z,452
2022-11-15T07:31:36.469Z,464
2022-11-15T07:36:21.356Z,572
2022-11-15T07:37:01.967Z,576
2022-11-15T07:37:42.767Z,568
2022-11-15T07:38:23.216Z,564
2022-11-15T07:39:03.741Z,564
2022-11-15T07:39:44.159Z,572
2022-11-15T07:40:24.663Z,584
2022-11-15T07:41:05.272Z,588
2022-11-15T07:41:45.704Z,596
2022-11-15T07:42:26.210Z,592
2022-11-15T07:48:43.164Z,620
2022-11-15T07:49:12.507Z,612
2022-11-15T07:49:53.152Z,604
2022-11-15T07:50:33.600Z,604
2022-11-15T07:51:14.572Z,608
2022-11-15T07:51:54.535Z,616
2022-11-15T07:52:35.132Z,624
2022-11-15T07:53:15.634Z,628
2022-11-15T07:53:56.375Z,624
2022-11-15T07:56:02.079Z,632
2022-11-15T07:56:44.984Z,632
2022-11-15T07:57:28.448Z,636
2022-11-15T08:01:31.522Z,652
2022-11-15T08:02:12.125Z,652
2022-11-15T08:02:53.239Z,656
2022-11-15T08:03:35.846Z,660
2022-11-15T08:04:16.014Z,664
2022-11-15T08:08:21.398Z,696
2022-11-15T08:09:02.078Z,696
2022-11-15T08:09:43.396Z,696
2022-11-15T08:10:23.417Z,696
2022-11-15T08:11:04.039Z,700
2022-11-15T08:11:44.486Z,704
2022-11-15T08:12:25.146Z,704
2022-11-15T08:13:08.536Z,704
2022-11-15T08:20:01.715Z,736
2022-11-15T08:20:42.157Z,744
2022-11-15T08:21:22.684Z,756
2022-11-15T08:22:03.131Z,768
2022-11-15T08:22:43.667Z,776
2022-11-15T08:23:24.200Z,784
2022-11-15T08:24:04.737Z,788
2022-11-15T08:24:45.441Z,796
2022-11-15T08:25:25.893Z,800
2022-11-15T08:26:06.410Z,804
2022-11-15T08:32:51.756Z,868
2022-11-15T08:33:32.612Z,868
2022-11-15T08:34:12.766Z,868
2022-11-15T08:34:53.318Z,880
2022-11-15T08:35:34.102Z,896
2022-11-15T08:36:14.399Z,916
2022-11-15T08:36:55.672Z,940
2022-11-15T08:37:36.171Z,956
2022-11-15T08:38:16.753Z,964
2022-11-15T08:43:41.717Z,992
2022-11-15T08:44:22.241Z,992
2022-11-15T08:45:02.689Z,1004
2022-11-15T08:46:23.823Z,1016
2022-11-15T08:47:04.318Z,1012
2022-11-15T08:47:47.405Z,1008
2022-11-15T08:48:25.476Z,1008
2022-11-15T08:49:05.898Z,1000
2022-11-15T08:49:46.454Z,992
2022-11-15T08:56:31.843Z,992
2022-11-15T08:57:12.335Z,1016
2022-11-15T08:57:52.842Z,1032
2022-11-15T08:58:33.635Z,1036
2022-11-15T08:59:13.927Z,1040
2022-11-15T08:59:54.480Z,1048
2022-11-15T09:00:34.947Z,1048
2022-11-15T09:01:18.315Z,1052
2022-11-15T09:06:43.276Z,1064
2022-11-15T09:07:22.239Z,1032
2022-11-15T09:08:13.807Z,1036
2022-11-15T09:08:47.770Z,1024
2022-11-15T09:09:23.761Z,1020
2022-11-15T09:10:04.235Z,1016
2022-11-15T09:10:44.769Z,1020
2022-11-15T09:11:25.516Z,1036
2022-11-15T09:12:06.004Z,1044
2022-11-15T09:12:46.480Z,1056
2022-11-15T09:19:31.775Z,1056
2022-11-15T09:20:52.789Z,1048
2022-11-15T09:21:33.366Z,1068
2022-11-15T09:22:13.901Z,1076
2022-11-15T09:22:54.384Z,1068
2022-11-15T09:23:34.924Z,1056
2022-11-15T09:24:15.463Z,1056
2022-11-15T09:24:55.988Z,1088
2022-11-15T09:25:36.499Z,1076
2022-11-15T09:31:41.637Z,1040
2022-11-15T09:32:22.195Z,1048
2022-11-15T09:33:02.692Z,1052
2022-11-15T09:33:43.460Z,1052
2022-11-15T09:34:23.742Z,1048
2022-11-15T09:35:04.277Z,1052
2022-11-15T09:35:44.850Z,1048
2022-11-15T09:36:25.287Z,1048
2022-11-15T09:37:05.859Z,1048
2022-11-15T09:37:46.404Z,1028
2022-11-15T09:38:26.893Z,1020
2022-11-15T09:42:32.786Z,1176
2022-11-15T09:43:15.750Z,1192
2022-11-15T09:45:22.776Z,1148
2022-11-15T09:46:02.820Z,1144
2022-11-15T09:46:48.495Z,1140
2022-11-15T09:49:33.120Z,1136
2022-11-15T09:50:13.670Z,1124
2022-11-15T09:50:54.420Z,1128
2022-11-15T09:51:34.967Z,1152
2022-11-15T09:52:15.505Z,1152
2022-11-15T09:52:56.447Z,1140
2022-11-15T09:57:01.609Z,1176
2022-11-15T09:57:42.300Z,1172
2022-11-15T09:58:22.691Z,1176
2022-11-15T09:59:03.133Z,1172
2022-11-15T09:59:43.986Z,1188
2022-11-15T10:00:45.105Z,1180
2022-11-15T10:01:04.959Z,1172
2022-11-15T10:01:45.474Z,1160
2022-11-15T10:02:25.910Z,1148
2022-11-15T10:03:06.338Z,1156
2022-11-15T10:07:51.594Z,1120
2022-11-15T10:08:32.411Z,1108
2022-11-15T10:09:12.617Z,1096
2022-11-15T10:09:53.134Z,1104
2022-11-15T10:10:33.703Z,1088
2022-11-15T10:11:54.685Z,1064
2022-11-15T10:12:35.314Z,1044
2022-11-15T10:13:15.727Z,1048
2022-11-15T10:13:56.276Z,1052
2022-11-15T10:20:41.638Z,1076
2022-11-15T10:21:22.203Z,1072
2022-11-15T10:22:02.707Z,1068
2022-11-15T10:22:43.234Z,1060
2022-11-15T10:23:23.863Z,1040
2022-11-15T10:24:04.605Z,1032
2022-11-15T10:24:45.050Z,1028
2022-11-15T10:26:07.074Z,1008
2022-11-15T10:32:51.789Z,964
2022-11-15T10:33:32.250Z,972
2022-11-15T10:34:12.693Z,964
2022-11-15T10:34:54.786Z,964
2022-11-15T10:35:34.316Z,968
2022-11-15T10:36:14.800Z,964
2022-11-15T10:36:55.314Z,960
2022-11-15T10:37:35.827Z,956
2022-11-15T10:38:16.362Z,964
2022-11-15T10:42:21.536Z,980
2022-11-15T10:43:02.389Z,976
2022-11-15T10:43:43.042Z,968
2022-11-15T10:44:23.475Z,964
2022-11-15T10:45:04.019Z,956
2022-11-15T10:45:44.620Z,960
2022-11-15T10:46:45.419Z,948
2022-11-15T10:47:05.813Z,940
2022-11-15T10:47:46.285Z,948
2022-11-15T10:54:09.068Z,980
2022-11-15T10:54:45.397Z,984
2022-11-15T10:55:25.912Z,1000
2022-11-15T10:56:06.408Z,1020
2022-11-15T10:56:47.210Z,1012
2022-11-15T10:57:29.495Z,1008
2022-11-15T11:01:05.883Z,1004
2022-11-15T11:04:40.078Z,980
2022-11-15T11:05:20.426Z,972
2022-11-15T11:06:00.945Z,968
2022-11-15T11:06:41.448Z,964
2022-11-15T11:07:21.999Z,936
2022-11-15T11:08:02.493Z,948
2022-11-15T11:08:43.076Z,952
2022-11-15T11:09:23.654Z,940
2022-11-15T11:10:09.761Z,860
2022-11-15T11:16:49.687Z,880
2022-11-15T11:17:30.163Z,892
2022-11-15T11:18:10.662Z,872
2022-11-15T11:18:51.251Z,868
2022-11-15T11:19:31.702Z,860
2022-11-15T11:20:52.725Z,876
2022-11-15T11:21:38.510Z,884
2022-11-15T11:22:13.740Z,868
2022-11-15T11:22:54.290Z,840
2022-11-15T11:23:34.979Z,896
2022-11-15T11:30:20.452Z,808
2022-11-15T11:31:00.968Z,792
2022-11-15T11:31:41.435Z,864
2022-11-15T11:32:22.001Z,872
2022-11-15T11:33:02.540Z,888
2022-11-15T11:33:43.044Z,932
2022-11-15T11:34:23.579Z,948
2022-11-15T11:35:04.048Z,984
2022-11-15T11:35:44.524Z,976
2022-11-15T11:42:29.532Z,840
2022-11-15T11:43:10.091Z,840
2022-11-15T11:43:50.532Z,848
2022-11-15T11:44:31.039Z,860
2022-11-15T11:45:11.882Z,868
2022-11-15T11:48:31.600Z,916
2022-11-15T11:49:13.346Z,928
2022-11-15T11:49:55.996Z,940
2022-11-15T11:50:43.318Z,956
2022-11-15T11:51:23.852Z,968
2022-11-15T12:32:31.917Z,832
2022-11-15T12:33:12.307Z,828
2022-11-15T12:33:52.839Z,820
2022-11-15T12:34:33.392Z,812
2022-11-15T12:35:13.946Z,788
2022-11-15T12:35:54.436Z,772
2022-11-15T12:36:34.974Z,760
2022-11-15T12:37:15.460Z,748
2022-11-15T12:37:55.963Z,744
2022-11-15T12:38:36.460Z,740
2022-11-15T12:43:22.421Z,784
2022-11-15T12:46:36.733Z,844
2022-11-15T12:47:22.103Z,840
2022-11-15T12:47:59.648Z,844
2022-11-15T12:51:32.999Z,848
2022-11-15T12:52:13.437Z,848
2022-11-15T12:52:53.910Z,840
2022-11-15T12:53:34.485Z,828
2022-11-15T12:54:15.413Z,812
2022-11-15T12:54:55.891Z,792
2022-11-15T12:55:36.410Z,772
2022-11-15T12:56:16.932Z,752
2022-11-15T12:56:57.377Z,728
2022-11-15T13:03:47.614Z,660
2022-11-15T13:04:28.200Z,664
2022-11-15T13:07:04.264Z,680
2022-11-15T13:07:47.835Z,668
2022-11-15T13:08:27.875Z,656
2022-11-15T13:09:10.692Z,652
2022-11-15T13:13:53.386Z,596
2022-11-15T13:14:33.841Z,588
2022-11-15T13:15:16.357Z,580
2022-11-15T13:15:57.815Z,568
2022-11-15T13:18:43.036Z,580
2022-11-15T13:19:23.498Z,580
2022-11-15T13:20:03.995Z,568
2022-11-15T13:20:46.936Z,556
2022-11-15T13:21:29.230Z,548
2022-11-15T13:25:33.240Z,540
2022-11-15T13:26:13.801Z,536
2022-11-15T13:26:54.448Z,536
2022-11-15T13:27:34.813Z,532
2022-11-15T13:28:15.319Z,524
2022-11-15T13:28:55.936Z,516
2022-11-15T13:29:36.433Z,504
2022-11-15T13:30:16.990Z,496
2022-11-15T13:30:57.437Z,484
2022-11-15T13:31:37.934Z,472
2022-11-15T13:37:43.242Z,396
2022-11-15T13:38:23.738Z,392
2022-11-15T13:39:04.285Z,384
2022-11-15T13:39:44.793Z,384
2022-11-15T13:41:05.892Z,388
2022-11-15T13:41:46.327Z,396
2022-11-15T13:42:26.819Z,400
2022-11-15T13:43:07.286Z,404
2022-11-15T13:43:47.768Z,408
2022-11-15T13:44:28.298Z,416
2022-11-15T13:50:32.936Z,388
2022-11-15T13:51:13.422Z,388
2022-11-15T13:51:53.959Z,392
2022-11-15T13:52:34.458Z,392
2022-11-15T13:53:55.456Z,384
2022-11-15T13:54:35.991Z,380
2022-11-15T13:55:16.452Z,376
2022-11-15T13:55:57.005Z,372
2022-11-15T13:56:37.535Z,364
2022-11-15T13:57:18.185Z,356
2022-11-15T14:03:23.164Z,324
2022-11-15T14:04:03.645Z,328
2022-11-15T14:04:44.102Z,332
2022-11-15T14:05:24.651Z,328
2022-11-15T14:06:45.909Z,328
2022-11-15T14:07:26.437Z,324
2022-11-15T14:08:07.988Z,328
2022-11-15T14:14:13.058Z,284
2022-11-15T14:14:53.419Z,276
2022-11-15T14:15:33.867Z,268
2022-11-15T14:17:52.319Z,244
2022-11-15T14:18:33.691Z,244
2022-11-15T14:19:15.496Z,240
2022-11-15T14:19:56.598Z,244
2022-11-15T14:23:22.679Z,260
2022-11-15T14:24:05.674Z,264
2022-11-15T14:27:31.993Z,252
2022-11-15T14:28:13.226Z,252
2022-11-15T14:28:54.493Z,252
2022-11-15T14:29:35.494Z,256
2022-11-15T14:30:16.564Z,264
2022-11-15T14:34:40.164Z,276
2022-11-15T14:35:20.918Z,276
2022-11-15T14:36:01.662Z,280
2022-11-15T14:36:42.806Z,284
2022-11-15T14:37:23.283Z,280
2022-11-15T14:38:03.902Z,272
2022-11-15T14:38:45.344Z,272
2022-11-15T14:42:10.510Z,260
2022-11-15T14:42:51.550Z,256
2022-11-15T14:43:32.334Z,252
2022-11-15T14:44:12.933Z,244
2022-11-15T14:44:53.825Z,240
2022-11-15T14:51:21.268Z,212
2022-11-15T14:52:02.782Z,204
2022-11-15T14:52:43.343Z,196
2022-11-15T14:53:23.980Z,188
2022-11-15T14:54:04.582Z,180
2022-11-15T14:54:45.801Z,172
2022-11-15T14:57:30.181Z,168
2022-11-15T14:58:11.437Z,164
2022-11-15T14:58:51.772Z,164
2022-11-15T14:59:35.615Z,164
2022-11-15T15:04:12.259Z,160
2022-11-15T15:04:55.526Z,160
2022-11-15T15:05:35.447Z,156
2022-11-15T15:06:18.139Z,152
2022-11-15T15:06:56.740Z,148
2022-11-15T15:11:01.958Z,132
2022-11-15T15:11:46.454Z,128
2022-11-15T15:16:04.253Z,100
2022-11-15T15:16:44.839Z,96
2022-11-15T15:17:27.351Z,96
2022-11-15T15:18:08.917Z,88
2022-11-15T15:19:31.564Z,80
2022-11-15T15:20:14.269Z,72
2022-11-15T15:22:34.463Z,60
2022-11-15T15:31:24.927Z,28
2022-11-15T15:32:06.097Z,32
2022-11-15T15:32:46.594Z,32
2022-11-15T15:33:27.108Z,28
2022-11-15T15:34:10.858Z,28
2022-11-15T15:34:48.749Z,28
2022-11-15T15:35:29.726Z,24
2022-11-15T15:38:54.594Z,20
2022-11-15T15:39:37.079Z,20
2022-11-15T15:40:18.047Z,16
2022-11-15T15:40:58.512Z,20
2022-11-15T15:41:39.948Z,16
2022-11-15T15:45:04.602Z,8
2022-11-15T15:45:46.520Z,12
2022-11-15T15:46:27.534Z,12
2022-11-15T15:47:08.980Z,8
2022-11-15T15:47:50.549Z,8
2022-11-15T15:49:15.986Z,8
2022-11-15T15:49:58.067Z,8
2022-11-15T15:50:41.059Z,8
2022-11-15T15:52:50.739Z,4
2022-11-15T15:53:34.555Z,4
2022-11-15T15:54:19.572Z,8
2022-11-15T15:55:06.563Z,4
2022-11-15T16:07:39.387Z,0
2022-11-15T16:08:20.437Z,0
2022-11-15T16:09:14.545Z,0
2022-11-15T16:09:41.383Z,0
2022-11-15T16:10:22.861Z,0
2022-11-15T16:26:33.827Z,0
2022-11-15T16:28:58.006Z,0
2022-11-15T16:29:37.907Z,0
2022-11-15T16:30:18.773Z,0
2022-11-15T16:31:02.686Z,0
2022-11-15T16:33:06.296Z,0
2022-11-15T16:33:46.757Z,0
2022-11-15T16:34:32.275Z,0
2022-11-15T16:35:14.306Z,0
2022-11-15T16:35:57.514Z,0
2022-11-15T16:41:10.297Z,0
2022-11-15T16:41:52.980Z,0
2022-11-15T16:44:22.944Z,0
2022-11-15T16:45:03.390Z,0
2022-11-15T16:45:44.387Z,0
2022-11-15T16:46:26.210Z,0
2022-11-15T16:47:07.213Z,0
2022-11-15T16:49:52.587Z,0
2022-11-15T16:50:33.032Z,0
2022-11-15T16:51:13.963Z,0
2022-11-15T16:51:54.517Z,0
2022-11-15T16:52:41.947Z,0
2022-11-15T16:53:22.548Z,0
2022-11-15T16:54:04.045Z,0
2022-11-15T16:54:44.531Z,0
2022-11-15T16:55:24.964Z,0
2022-11-15T16:57:41.787Z,0
2022-11-15T16:58:22.428Z,0
2022-11-15T16:59:05.139Z,0
2022-11-15T16:59:46.008Z,0
2022-11-15T17:00:26.539Z,0
2022-11-15T17:01:07.309Z,0
2022-11-15T17:04:32.659Z,0
2022-11-15T17:05:20.548Z,0
2022-11-15T17:06:43.818Z,0
2022-11-15T17:07:24.281Z,0
2022-11-15T17:08:04.805Z,0
2022-11-15T17:08:47.107Z,0
2022-11-15T17:13:32.645Z,0
2022-11-15T17:14:13.152Z,0
2022-11-15T17:16:28.509Z,0
2022-11-15T17:17:11.538Z,0
2022-11-15T17:17:52.043Z,0
2022-11-15T17:18:32.811Z,0
2022-11-15T17:23:16.046Z,0
2022-11-15T17:23:56.557Z,0
2022-11-15T17:24:37.165Z,0
2022-11-15T17:25:17.965Z,0
2022-11-15T17:26:12.029Z,0
2022-11-15T17:26:40.900Z,0
2022-11-15T17:27:19.809Z,0
2022-11-15T17:28:00.267Z,0
2022-11-15T17:28:41.585Z,0
2022-11-15T17:33:25.663Z,0
2022-11-15T17:34:06.138Z,0
2022-11-15T17:34:46.662Z,0
2022-11-15T17:35:27.132Z,0
2022-11-15T17:36:07.981Z,0
2022-11-15T17:36:48.496Z,0
2022-11-15T17:37:28.987Z,0
2022-11-15T17:38:09.399Z,0
2022-11-15T17:38:49.915Z,0
2022-11-15T17:39:30.487Z,0
2022-11-15T17:40:10.984Z,0
2022-11-15T17:44:16.885Z,0
2022-11-15T17:44:56.657Z,0
2022-11-15T17:45:37.456Z,0
2022-11-15T17:46:18.689Z,0
2022-11-15T17:46:59.316Z,0
2022-11-15T17:47:39.782Z,0
2022-11-15T17:48:20.329Z,0
2022-11-15T17:49:00.914Z,0
2022-11-15T17:53:46.144Z,0
2022-11-15T18:34:30.468Z,0
2022-11-15T18:35:11.524Z,0
2022-11-15T18:35:52.654Z,0
2022-11-15T18:36:33.633Z,0
2022-11-15T18:37:14.653Z,0
2022-11-15T18:39:19.593Z,0
2022-11-15T18:40:00.554Z,0
2022-11-15T18:40:41.464Z,0
2022-11-15T18:41:22.492Z,0
2022-11-15T18:42:03.466Z,0
2022-11-15T18:42:44.520Z,0
2022-11-15T18:45:29.686Z,0
2022-11-15T18:46:10.028Z,0
2022-11-15T18:46:54.832Z,0
2022-11-15T18:49:39.757Z,0
2022-11-15T18:50:20.885Z,0
2022-11-15T18:51:05.232Z,0
2022-11-15T18:51:43.558Z,0
2022-11-15T18:52:24.813Z,0
2022-11-15T18:54:31.529Z,0
2022-11-15T18:55:10.861Z,0
2022-11-15T18:56:34.577Z,0
2022-11-15T18:59:20.866Z,0
2022-11-15T19:00:03.362Z,0
2022-11-15T19:00:47.588Z,0
2022-11-15T19:02:49.816Z,0
2022-11-15T19:03:30.887Z,0
2022-11-15T19:04:11.921Z,0
2022-11-15T19:04:52.797Z,0
2022-11-15T19:06:19.685Z,0
2022-11-15T19:10:37.135Z,0
2022-11-15T19:11:17.571Z,0
2022-11-15T19:11:58.605Z,0
2022-11-15T19:15:12.665Z,0
2022-11-15T19:15:53.282Z,0
2022-11-15T19:16:34.054Z,0
2022-11-15T19:17:16.181Z,0
2022-11-15T19:17:56.781Z,0
2022-11-15T19:22:03.320Z,0
2022-11-15T19:22:44.028Z,0
2022-11-15T19:23:24.623Z,0
2022-11-15T19:24:04.993Z,0
2022-11-15T19:24:45.526Z,0
2022-11-15T19:25:25.946Z,0
2022-11-15T19:26:06.478Z,0
2022-11-15T19:26:47.013Z,0
2022-11-15T19:27:27.456Z,0
2022-11-15T19:31:32.711Z,0
2022-11-15T19:32:14.267Z,0
2022-11-15T19:32:57.311Z,0
2022-11-15T19:33:37.763Z,0
2022-11-15T19:39:42.886Z,0
2022-11-15T19:40:23.198Z,0
2022-11-15T19:41:03.739Z,0
2022-11-15T19:41:44.175Z,0
2022-11-15T19:42:24.693Z,0
2022-11-15T19:43:05.133Z,0
2022-11-15T19:43:45.696Z,0
2022-11-15T19:44:26.246Z,0
2022-11-15T19:45:06.747Z,0
2022-11-15T19:45:47.211Z,0
2022-11-15T19:46:27.783Z,0
2022-11-15T19:52:32.567Z,0
2022-11-15T19:53:13.131Z,0
2022-11-15T19:53:53.625Z,0
2022-11-15T19:54:34.773Z,0
2022-11-15T19:55:15.268Z,0
2022-11-15T19:55:55.741Z,0
2022-11-15T19:57:16.845Z,0
2022-11-15T19:57:57.372Z,0
2022-11-15T20:05:22.850Z,0
2022-11-15T20:06:03.354Z,0
2022-11-15T20:07:24.416Z,0
2022-11-15T20:08:05.608Z,0
2022-11-15T20:08:46.078Z,0
2022-11-15T20:09:26.601Z,0
2022-11-15T20:10:07.040Z,0
2022-11-15T20:10:47.547Z,0
2022-11-15T20:18:10.181Z,0
2022-11-15T20:18:50.616Z,0
2022-11-15T20:19:31.086Z,0
2022-11-15T20:20:11.513Z,0
2022-11-15T20:20:52.016Z,0
2022-11-15T20:21:32.492Z,0
2022-11-15T20:22:13.008Z,0
2022-11-15T20:22:53.480Z,0
2022-11-15T20:23:33.951Z,0
2022-11-15T20:24:14.421Z,0
2022-11-15T20:24:54.874Z,0
2022-11-15T20:32:20.197Z,0
2022-11-15T20:33:00.660Z,0
2022-11-15T20:33:41.198Z,0
2022-11-15T20:34:21.645Z,0
2022-11-15T20:35:02.081Z,0
2022-11-15T20:35:42.630Z,0
2022-11-15T20:36:23.022Z,0
2022-11-15T20:37:03.484Z,0
2022-11-15T20:37:43.959Z,0
2022-11-15T20:38:24.412Z,0
2022-11-15T20:39:04.925Z,0
2022-11-15T20:46:30.160Z,0
2022-11-15T20:47:10.654Z,0
2022-11-15T20:47:51.153Z,0
2022-11-15T20:48:31.950Z,0
2022-11-15T20:49:12.046Z,0
2022-11-15T20:49:52.546Z,0
2022-11-15T20:50:42.385Z,0
2022-11-15T20:51:13.498Z,0
2022-11-15T20:51:53.960Z,0
2022-11-15T20:52:34.415Z,0
2022-11-15T21:00:40.302Z,0
2022-11-15T21:01:20.937Z,0
2022-11-15T21:02:01.337Z,0
2022-11-15T21:02:41.797Z,0
2022-11-15T21:04:02.754Z,0
2022-11-15T21:04:43.240Z,0
2022-11-15T21:05:23.724Z,0